sensor_id;sensor_type;location;lat;lon;timestamp;temperature;humidity
74484;SHT31;62942;52.462;10.846;2023-08-30T00:01:06;12.2;91.4
74484;SHT31;62942;52.462;10.846;2023-08-30T00:02:16;12.1;91.4
74484;SHT31;62942;52.462;10.846;2023-08-30T00:03:26;12.1;91.5
74484;SHT31;62942;52.462;10.846;2023-08-30T00:04:26;12.1;91.4
74484;SHT31;62942;52.462;10.846;2023-08-30T00:05:38;12.1;91.4
74484;SHT31;62942;52.462;10.846;2023-08-30T00:06:46;12;91.5
74484;SHT31;62942;52.462;10.846;2023-08-30T00:07:56;12;91.6
74484;SHT31;62942;52.462;10.846;2023-08-30T00:09:06;12;91.7
74484;SHT31;62942;52.462;10.846;2023-08-30T00:10:16;12;91.8
74484;SHT31;62942;52.462;10.846;2023-08-30T00:11:26;12;91.9
74484;SHT31;62942;52.462;10.846;2023-08-30T00:12:26;12;92.1
74484;SHT31;62942;52.462;10.846;2023-08-30T00:13:36;12;92.2
74484;SHT31;62942;52.462;10.846;2023-08-30T00:14:46;12;92.3
74484;SHT31;62942;52.462;10.846;2023-08-30T00:15:46;12;92.4
74484;SHT31;62942;52.462;10.846;2023-08-30T00:16:46;12;92.4
74484;SHT31;62942;52.462;10.846;2023-08-30T00:17:56;11.9;92.5
74484;SHT31;62942;52.462;10.846;2023-08-30T00:18:56;11.9;92.5
74484;SHT31;62942;52.462;10.846;2023-08-30T00:19:56;11.9;92.6
74484;SHT31;62942;52.462;10.846;2023-08-30T00:20:56;11.9;92.7
74484;SHT31;62942;52.462;10.846;2023-08-30T00:22:06;11.9;92.8
74484;SHT31;62942;52.462;10.846;2023-08-30T00:23:16;11.9;92.8
74484;SHT31;62942;52.462;10.846;2023-08-30T00:24:26;11.8;92.9
74484;SHT31;62942;52.462;10.846;2023-08-30T00:25:36;11.8;92.9
74484;SHT31;62942;52.462;10.846;2023-08-30T00:26:46;11.8;92.9
74484;SHT31;62942;52.462;10.846;2023-08-30T00:27:56;11.8;92.9
74484;SHT31;62942;52.462;10.846;2023-08-30T00:29:06;11.7;92.8
74484;SHT31;62942;52.462;10.846;2023-08-30T00:30:16;11.7;92.8
74484;SHT31;62942;52.462;10.846;2023-08-30T00:31:16;11.6;92.8
74484;SHT31;62942;52.462;10.846;2023-08-30T00:32:26;11.6;92.8
74484;SHT31;62942;52.462;10.846;2023-08-30T00:33:36;11.6;92.8
74484;SHT31;62942;52.462;10.846;2023-08-30T00:34:36;11.6;92.8
74484;SHT31;62942;52.462;10.846;2023-08-30T00:35:36;11.6;92.9
74484;SHT31;62942;52.462;10.846;2023-08-30T00:36:46;11.6;93
74484;SHT31;62942;52.462;10.846;2023-08-30T00:37:56;11.6;93.1
74484;SHT31;62942;52.462;10.846;2023-08-30T00:39:06;11.6;93.2
74484;SHT31;62942;52.462;10.846;2023-08-30T00:40:16;11.6;93.3
74484;SHT31;62942;52.462;10.846;2023-08-30T00:41:26;11.6;93.4
74484;SHT31;62942;52.462;10.846;2023-08-30T00:42:36;11.6;93.5
74484;SHT31;62942;52.462;10.846;2023-08-30T00:43:46;11.5;93.6
74484;SHT31;62942;52.462;10.846;2023-08-30T00:44:56;11.5;93.7
74484;SHT31;62942;52.462;10.846;2023-08-30T00:45:56;11.5;93.8
74484;SHT31;62942;52.462;10.846;2023-08-30T00:47:06;11.5;93.9
74484;SHT31;62942;52.462;10.846;2023-08-30T00:48:06;11.5;93.9
74484;SHT31;62942;52.462;10.846;2023-08-30T00:49:16;11.5;94
74484;SHT31;62942;52.462;10.846;2023-08-30T00:50:26;11.4;94
74484;SHT31;62942;52.462;10.846;2023-08-30T00:51:36;11.4;94.1
74484;SHT31;62942;52.462;10.846;2023-08-30T00:52:36;11.4;94.1
74484;SHT31;62942;52.462;10.846;2023-08-30T00:53:46;11.4;94.1
74484;SHT31;62942;52.462;10.846;2023-08-30T00:54:56;11.3;94.1
74484;SHT31;62942;52.462;10.846;2023-08-30T00:56:06;11.3;94.1
74484;SHT31;62942;52.462;10.846;2023-08-30T00:57:16;11.3;94.1
74484;SHT31;62942;52.462;10.846;2023-08-30T00:58:16;11.3;94.3
74484;SHT31;62942;52.462;10.846;2023-08-30T00:59:26;11.3;94.3
74484;SHT31;62942;52.462;10.846;2023-08-30T01:00:36;11.3;94.3
74484;SHT31;62942;52.462;10.846;2023-08-30T01:01:46;11.3;94.4
74484;SHT31;62942;52.462;10.846;2023-08-30T01:02:46;11.3;94.4
74484;SHT31;62942;52.462;10.846;2023-08-30T01:03:56;11.3;94.5
74484;SHT31;62942;52.462;10.846;2023-08-30T01:05:06;11.3;94.6
74484;SHT31;62942;52.462;10.846;2023-08-30T01:06:16;11.3;94.6
74484;SHT31;62942;52.462;10.846;2023-08-30T01:07:16;11.3;94.7
74484;SHT31;62942;52.462;10.846;2023-08-30T01:08:26;11.3;94.7
74484;SHT31;62942;52.462;10.846;2023-08-30T01:09:36;11.3;94.9
74484;SHT31;62942;52.462;10.846;2023-08-30T01:10:38;11.3;95
74484;SHT31;62942;52.462;10.846;2023-08-30T01:11:48;11.3;95
74484;SHT31;62942;52.462;10.846;2023-08-30T01:12:56;11.4;95.1
74484;SHT31;62942;52.462;10.846;2023-08-30T01:13:56;11.3;95.2
74484;SHT31;62942;52.462;10.846;2023-08-30T01:15:06;11.3;95.1
74484;SHT31;62942;52.462;10.846;2023-08-30T01:16:16;11.3;95.3
74484;SHT31;62942;52.462;10.846;2023-08-30T01:17:16;11.3;95.2
74484;SHT31;62942;52.462;10.846;2023-08-30T01:18:16;11.3;95.1
74484;SHT31;62942;52.462;10.846;2023-08-30T01:19:32;11.3;95.1
74484;SHT31;62942;52.462;10.846;2023-08-30T01:20:36;11.3;95.1
74484;SHT31;62942;52.462;10.846;2023-08-30T01:21:38;11.3;95.1
74484;SHT31;62942;52.462;10.846;2023-08-30T01:22:47;11.3;95.1
74484;SHT31;62942;52.462;10.846;2023-08-30T01:23:47;11.2;95.1
74484;SHT31;62942;52.462;10.846;2023-08-30T01:24:58;11.2;95
74484;SHT31;62942;52.462;10.846;2023-08-30T01:26:08;11.2;95
74484;SHT31;62942;52.462;10.846;2023-08-30T01:27:07;11.2;95
74484;SHT31;62942;52.462;10.846;2023-08-30T01:28:06;11.2;94.9
74484;SHT31;62942;52.462;10.846;2023-08-30T01:29:16;11.1;94.9
74484;SHT31;62942;52.462;10.846;2023-08-30T01:30:16;11.1;94.9
74484;SHT31;62942;52.462;10.846;2023-08-30T01:31:26;11.1;94.8
74484;SHT31;62942;52.462;10.846;2023-08-30T01:32:26;11;94.8
74484;SHT31;62942;52.462;10.846;2023-08-30T01:33:36;11;94.8
74484;SHT31;62942;52.462;10.846;2023-08-30T01:34:46;11;94.7
74484;SHT31;62942;52.462;10.846;2023-08-30T01:35:56;11;94.7
74484;SHT31;62942;52.462;10.846;2023-08-30T01:36:56;10.9;94.6
74484;SHT31;62942;52.462;10.846;2023-08-30T01:37:56;10.9;94.6
74484;SHT31;62942;52.462;10.846;2023-08-30T01:39:06;10.9;94.6
74484;SHT31;62942;52.462;10.846;2023-08-30T01:40:16;10.8;94.6
74484;SHT31;62942;52.462;10.846;2023-08-30T01:41:16;10.8;94.6
74484;SHT31;62942;52.462;10.846;2023-08-30T01:42:26;10.8;94.8
74484;SHT31;62942;52.462;10.846;2023-08-30T01:43:26;10.8;94.7
74484;SHT31;62942;52.462;10.846;2023-08-30T01:44:26;10.8;94.9
74484;SHT31;62942;52.462;10.846;2023-08-30T01:45:26;10.9;94.9
74484;SHT31;62942;52.462;10.846;2023-08-30T01:46:36;10.9;95
74484;SHT31;62942;52.462;10.846;2023-08-30T01:47:46;10.9;95
74484;SHT31;62942;52.462;10.846;2023-08-30T01:48:56;10.9;95.2
74484;SHT31;62942;52.462;10.846;2023-08-30T01:49:56;10.9;95.3
74484;SHT31;62942;52.462;10.846;2023-08-30T01:51:06;10.9;95.3
74484;SHT31;62942;52.462;10.846;2023-08-30T01:52:15;10.9;95.4
74484;SHT31;62942;52.462;10.846;2023-08-30T01:53:16;10.9;95.5
74484;SHT31;62942;52.462;10.846;2023-08-30T01:54:17;10.9;95.5
74484;SHT31;62942;52.462;10.846;2023-08-30T01:55:26;10.8;95.5
74484;SHT31;62942;52.462;10.846;2023-08-30T01:56:26;10.8;95.5
74484;SHT31;62942;52.462;10.846;2023-08-30T01:57:36;10.8;95.5
74484;SHT31;62942;52.462;10.846;2023-08-30T01:58:46;10.8;95.5
74484;SHT31;62942;52.462;10.846;2023-08-30T01:59:56;10.8;95.6
74484;SHT31;62942;52.462;10.846;2023-08-30T02:00:56;10.8;95.7
74484;SHT31;62942;52.462;10.846;2023-08-30T02:02:05;10.8;95.7
74484;SHT31;62942;52.462;10.846;2023-08-30T02:03:07;10.8;95.7
74484;SHT31;62942;52.462;10.846;2023-08-30T02:04:06;10.8;95.8
74484;SHT31;62942;52.462;10.846;2023-08-30T02:05:16;10.8;95.8
74484;SHT31;62942;52.462;10.846;2023-08-30T02:06:26;10.8;95.8
74484;SHT31;62942;52.462;10.846;2023-08-30T02:07:27;10.8;95.9
74484;SHT31;62942;52.462;10.846;2023-08-30T02:08:26;10.8;95.9
74484;SHT31;62942;52.462;10.846;2023-08-30T02:09:36;10.8;95.8
74484;SHT31;62942;52.462;10.846;2023-08-30T02:10:48;10.8;95.8
74484;SHT31;62942;52.462;10.846;2023-08-30T02:11:45;10.8;95.9
74484;SHT31;62942;52.462;10.846;2023-08-30T02:12:46;10.7;95.8
74484;SHT31;62942;52.462;10.846;2023-08-30T02:13:57;10.7;95.8
74484;SHT31;62942;52.462;10.846;2023-08-30T02:14:55;10.7;95.9
74484;SHT31;62942;52.462;10.846;2023-08-30T02:15:56;10.7;95.9
74484;SHT31;62942;52.462;10.846;2023-08-30T02:17:05;10.7;96
74484;SHT31;62942;52.462;10.846;2023-08-30T02:18:05;10.7;95.9
74484;SHT31;62942;52.462;10.846;2023-08-30T02:19:05;10.7;96
74484;SHT31;62942;52.462;10.846;2023-08-30T02:20:06;10.7;96
74484;SHT31;62942;52.462;10.846;2023-08-30T02:21:15;10.8;96
74484;SHT31;62942;52.462;10.846;2023-08-30T02:22:25;10.8;96.1
74484;SHT31;62942;52.462;10.846;2023-08-30T02:23:36;10.8;96.1
74484;SHT31;62942;52.462;10.846;2023-08-30T02:24:45;10.8;96.1
74484;SHT31;62942;52.462;10.846;2023-08-30T02:25:55;10.8;96.1
74484;SHT31;62942;52.462;10.846;2023-08-30T02:27:05;10.8;96.3
74484;SHT31;62942;52.462;10.846;2023-08-30T02:28:05;10.9;96.3
74484;SHT31;62942;52.462;10.846;2023-08-30T02:29:15;10.9;96.3
74484;SHT31;62942;52.462;10.846;2023-08-30T02:30:15;10.9;96.3
74484;SHT31;62942;52.462;10.846;2023-08-30T02:31:25;10.9;96.3
74484;SHT31;62942;52.462;10.846;2023-08-30T02:32:26;10.9;96.3
74484;SHT31;62942;52.462;10.846;2023-08-30T02:33:35;10.9;96.4
74484;SHT31;62942;52.462;10.846;2023-08-30T02:34:35;11;96.4
74484;SHT31;62942;52.462;10.846;2023-08-30T02:35:45;11;96.5
74484;SHT31;62942;52.462;10.846;2023-08-30T02:36:45;11;96.5
74484;SHT31;62942;52.462;10.846;2023-08-30T02:37:55;11;96.5
74484;SHT31;62942;52.462;10.846;2023-08-30T02:39:05;11;96.6
74484;SHT31;62942;52.462;10.846;2023-08-30T02:40:15;11;96.6
74484;SHT31;62942;52.462;10.846;2023-08-30T02:41:25;11;96.7
74484;SHT31;62942;52.462;10.846;2023-08-30T02:42:35;11;96.7
74484;SHT31;62942;52.462;10.846;2023-08-30T02:43:35;11;96.7
74484;SHT31;62942;52.462;10.846;2023-08-30T02:44:45;11;96.7
74484;SHT31;62942;52.462;10.846;2023-08-30T02:45:45;11;96.7
74484;SHT31;62942;52.462;10.846;2023-08-30T02:46:56;11;96.8
74484;SHT31;62942;52.462;10.846;2023-08-30T02:48:05;11.1;96.8
74484;SHT31;62942;52.462;10.846;2023-08-30T02:49:15;11.1;96.8
74484;SHT31;62942;52.462;10.846;2023-08-30T02:50:25;11.1;96.8
74484;SHT31;62942;52.462;10.846;2023-08-30T02:51:25;11.1;96.8
74484;SHT31;62942;52.462;10.846;2023-08-30T02:52:35;11.1;96.8
74484;SHT31;62942;52.462;10.846;2023-08-30T02:53:45;11.1;96.8
74484;SHT31;62942;52.462;10.846;2023-08-30T02:54:45;11.1;96.8
74484;SHT31;62942;52.462;10.846;2023-08-30T02:55:46;11.1;96.8
74484;SHT31;62942;52.462;10.846;2023-08-30T02:56:55;11.1;96.8
74484;SHT31;62942;52.462;10.846;2023-08-30T02:57:55;11.1;96.8
74484;SHT31;62942;52.462;10.846;2023-08-30T02:59:05;11.1;96.9
74484;SHT31;62942;52.462;10.846;2023-08-30T03:00:06;11.1;96.9
74484;SHT31;62942;52.462;10.846;2023-08-30T03:01:15;11.1;96.9
74484;SHT31;62942;52.462;10.846;2023-08-30T03:02:26;11.1;96.9
74484;SHT31;62942;52.462;10.846;2023-08-30T03:03:35;11.1;96.9
74484;SHT31;62942;52.462;10.846;2023-08-30T03:04:45;11.1;97
74484;SHT31;62942;52.462;10.846;2023-08-30T03:05:55;11.2;96.9
74484;SHT31;62942;52.462;10.846;2023-08-30T03:07:05;11.2;96.9
74484;SHT31;62942;52.462;10.846;2023-08-30T03:08:15;11.2;96.8
74484;SHT31;62942;52.462;10.846;2023-08-30T03:09:25;11.2;96.8
74484;SHT31;62942;52.462;10.846;2023-08-30T03:10:25;11.2;96.8
74484;SHT31;62942;52.462;10.846;2023-08-30T03:11:25;11.2;96.8
74484;SHT31;62942;52.462;10.846;2023-08-30T03:12:35;11.1;96.7
74484;SHT31;62942;52.462;10.846;2023-08-30T03:13:35;11.1;96.7
74484;SHT31;62942;52.462;10.846;2023-08-30T03:14:35;11.1;96.6
74484;SHT31;62942;52.462;10.846;2023-08-30T03:15:35;11.1;96.6
74484;SHT31;62942;52.462;10.846;2023-08-30T03:16:35;11.1;96.6
74484;SHT31;62942;52.462;10.846;2023-08-30T03:17:45;11.1;96.6
74484;SHT31;62942;52.462;10.846;2023-08-30T03:18:46;11.1;96.6
74484;SHT31;62942;52.462;10.846;2023-08-30T03:19:55;11.1;96.6
74484;SHT31;62942;52.462;10.846;2023-08-30T03:21:05;11.1;96.5
74484;SHT31;62942;52.462;10.846;2023-08-30T03:22:05;11;96.5
74484;SHT31;62942;52.462;10.846;2023-08-30T03:23:15;11;96.4
74484;SHT31;62942;52.462;10.846;2023-08-30T03:24:15;10.9;96.4
74484;SHT31;62942;52.462;10.846;2023-08-30T03:25:28;10.9;96.3
74484;SHT31;62942;52.462;10.846;2023-08-30T03:26:25;10.9;96.2
74484;SHT31;62942;52.462;10.846;2023-08-30T03:27:35;10.8;96.1
74484;SHT31;62942;52.462;10.846;2023-08-30T03:28:36;10.8;96
74484;SHT31;62942;52.462;10.846;2023-08-30T03:29:35;10.8;95.9
74484;SHT31;62942;52.462;10.846;2023-08-30T03:30:45;10.7;95.9
74484;SHT31;62942;52.462;10.846;2023-08-30T03:31:55;10.7;95.9
74484;SHT31;62942;52.462;10.846;2023-08-30T03:33:05;10.7;95.9
74484;SHT31;62942;52.462;10.846;2023-08-30T03:34:06;10.7;95.9
74484;SHT31;62942;52.462;10.846;2023-08-30T03:35:15;10.6;95.9
74484;SHT31;62942;52.462;10.846;2023-08-30T03:36:26;10.6;95.9
74484;SHT31;62942;52.462;10.846;2023-08-30T03:37:25;10.6;95.9
74484;SHT31;62942;52.462;10.846;2023-08-30T03:38:25;10.5;96
74484;SHT31;62942;52.462;10.846;2023-08-30T03:39:35;10.5;96
74484;SHT31;62942;52.462;10.846;2023-08-30T03:40:35;10.5;95.9
74484;SHT31;62942;52.462;10.846;2023-08-30T03:41:45;10.5;96
74484;SHT31;62942;52.462;10.846;2023-08-30T03:42:45;10.5;96.1
74484;SHT31;62942;52.462;10.846;2023-08-30T03:43:55;10.5;96.1
74484;SHT31;62942;52.462;10.846;2023-08-30T03:45:06;10.5;96
74484;SHT31;62942;52.462;10.846;2023-08-30T03:46:16;10.5;96
74484;SHT31;62942;52.462;10.846;2023-08-30T03:47:25;10.5;96
74484;SHT31;62942;52.462;10.846;2023-08-30T03:48:25;10.5;96
74484;SHT31;62942;52.462;10.846;2023-08-30T03:49:36;10.5;96.1
74484;SHT31;62942;52.462;10.846;2023-08-30T03:50:45;10.4;96.2
74484;SHT31;62942;52.462;10.846;2023-08-30T03:51:55;10.4;96.3
74484;SHT31;62942;52.462;10.846;2023-08-30T03:52:55;10.4;96.3
74484;SHT31;62942;52.462;10.846;2023-08-30T03:53:55;10.4;96.4
74484;SHT31;62942;52.462;10.846;2023-08-30T03:55:05;10.4;96.5
74484;SHT31;62942;52.462;10.846;2023-08-30T03:56:15;10.4;96.6
74484;SHT31;62942;52.462;10.846;2023-08-30T03:57:15;10.4;96.6
74484;SHT31;62942;52.462;10.846;2023-08-30T03:58:25;10.4;96.6
74484;SHT31;62942;52.462;10.846;2023-08-30T03:59:25;10.4;96.6
74484;SHT31;62942;52.462;10.846;2023-08-30T04:00:35;10.4;96.6
74484;SHT31;62942;52.462;10.846;2023-08-30T04:01:35;10.4;96.6
74484;SHT31;62942;52.462;10.846;2023-08-30T04:02:45;10.4;96.6
74484;SHT31;62942;52.462;10.846;2023-08-30T04:03:45;10.4;96.6
74484;SHT31;62942;52.462;10.846;2023-08-30T04:04:55;10.4;96.6
74484;SHT31;62942;52.462;10.846;2023-08-30T04:06:05;10.4;96.6
74484;SHT31;62942;52.462;10.846;2023-08-30T04:07:05;10.3;96.6
74484;SHT31;62942;52.462;10.846;2023-08-30T04:08:15;10.3;96.6
74484;SHT31;62942;52.462;10.846;2023-08-30T04:09:15;10.3;96.6
74484;SHT31;62942;52.462;10.846;2023-08-30T04:10:25;10.3;96.6
74484;SHT31;62942;52.462;10.846;2023-08-30T04:11:25;10.3;96.6
74484;SHT31;62942;52.462;10.846;2023-08-30T04:12:25;10.3;96.7
74484;SHT31;62942;52.462;10.846;2023-08-30T04:13:25;10.3;96.6
74484;SHT31;62942;52.462;10.846;2023-08-30T04:16:35;10.3;96.7
74484;SHT31;62942;52.462;10.846;2023-08-30T04:16:40;10.3;96.8
74484;SHT31;62942;52.462;10.846;2023-08-30T04:17:45;10.3;96.8
74484;SHT31;62942;52.462;10.846;2023-08-30T04:18:55;10.3;96.8
74484;SHT31;62942;52.462;10.846;2023-08-30T04:19:55;10.3;96.8
74484;SHT31;62942;52.462;10.846;2023-08-30T04:21:05;10.3;96.8
74484;SHT31;62942;52.462;10.846;2023-08-30T04:22:15;10.3;96.9
74484;SHT31;62942;52.462;10.846;2023-08-30T04:23:15;10.3;96.9
74484;SHT31;62942;52.462;10.846;2023-08-30T04:24:15;10.3;96.9
74484;SHT31;62942;52.462;10.846;2023-08-30T04:25:15;10.3;97
74484;SHT31;62942;52.462;10.846;2023-08-30T04:26:25;10.4;97.1
74484;SHT31;62942;52.462;10.846;2023-08-30T04:27:25;10.4;97.4
74484;SHT31;62942;52.462;10.846;2023-08-30T04:28:35;10.4;97.4
74484;SHT31;62942;52.462;10.846;2023-08-30T04:29:35;10.4;97.3
74484;SHT31;62942;52.462;10.846;2023-08-30T04:30:45;10.5;97.4
74484;SHT31;62942;52.462;10.846;2023-08-30T04:31:45;10.5;97.4
74484;SHT31;62942;52.462;10.846;2023-08-30T04:32:55;10.5;97.4
74484;SHT31;62942;52.462;10.846;2023-08-30T04:33:55;10.5;97.5
74484;SHT31;62942;52.462;10.846;2023-08-30T04:34:55;10.5;97.5
74484;SHT31;62942;52.462;10.846;2023-08-30T04:36:05;10.5;97.6
74484;SHT31;62942;52.462;10.846;2023-08-30T04:37:05;10.5;97.6
74484;SHT31;62942;52.462;10.846;2023-08-30T04:38:05;10.5;97.6
74484;SHT31;62942;52.462;10.846;2023-08-30T04:39:15;10.5;97.6
74484;SHT31;62942;52.462;10.846;2023-08-30T04:40:15;10.5;97.7
74484;SHT31;62942;52.462;10.846;2023-08-30T04:41:25;10.5;97.7
74484;SHT31;62942;52.462;10.846;2023-08-30T04:42:25;10.5;97.7
74484;SHT31;62942;52.462;10.846;2023-08-30T04:43:25;10.4;97.6
74484;SHT31;62942;52.462;10.846;2023-08-30T04:44:35;10.4;97.6
74484;SHT31;62942;52.462;10.846;2023-08-30T04:45:35;10.4;97.6
74484;SHT31;62942;52.462;10.846;2023-08-30T04:46:35;10.4;97.6
74484;SHT31;62942;52.462;10.846;2023-08-30T04:47:35;10.4;97.6
74484;SHT31;62942;52.462;10.846;2023-08-30T04:48:45;10.4;97.5
74484;SHT31;62942;52.462;10.846;2023-08-30T04:49:49;10.4;97.5
74484;SHT31;62942;52.462;10.846;2023-08-30T04:50:59;10.4;97.4
74484;SHT31;62942;52.462;10.846;2023-08-30T04:51:55;10.3;97.4
74484;SHT31;62942;52.462;10.846;2023-08-30T04:52:55;10.4;97.4
74484;SHT31;62942;52.462;10.846;2023-08-30T04:54:05;10.3;97.4
74484;SHT31;62942;52.462;10.846;2023-08-30T04:55:06;10.4;97.4
74484;SHT31;62942;52.462;10.846;2023-08-30T04:56:15;10.3;97.4
74484;SHT31;62942;52.462;10.846;2023-08-30T04:57:25;10.3;97.4
74484;SHT31;62942;52.462;10.846;2023-08-30T04:58:25;10.3;97.4
74484;SHT31;62942;52.462;10.846;2023-08-30T04:59:35;10.4;97.5
74484;SHT31;62942;52.462;10.846;2023-08-30T05:00:35;10.4;97.5
74484;SHT31;62942;52.462;10.846;2023-08-30T05:01:35;10.4;97.5
74484;SHT31;62942;52.462;10.846;2023-08-30T05:02:45;10.4;97.5
74484;SHT31;62942;52.462;10.846;2023-08-30T05:03:45;10.4;97.6
74484;SHT31;62942;52.462;10.846;2023-08-30T05:04:55;10.4;97.6
74484;SHT31;62942;52.462;10.846;2023-08-30T05:05:55;10.4;97.7
74484;SHT31;62942;52.462;10.846;2023-08-30T05:06:55;10.5;97.7
74484;SHT31;62942;52.462;10.846;2023-08-30T05:08:05;10.5;97.7
74484;SHT31;62942;52.462;10.846;2023-08-30T05:09:05;10.5;97.7
74484;SHT31;62942;52.462;10.846;2023-08-30T05:10:06;10.5;97.8
74484;SHT31;62942;52.462;10.846;2023-08-30T05:11:15;10.5;97.8
74484;SHT31;62942;52.462;10.846;2023-08-30T05:12:25;10.6;97.8
74484;SHT31;62942;52.462;10.846;2023-08-30T05:13:25;10.6;97.9
74484;SHT31;62942;52.462;10.846;2023-08-30T05:14:35;10.6;97.8
74484;SHT31;62942;52.462;10.846;2023-08-30T05:15:35;10.6;97.9
74484;SHT31;62942;52.462;10.846;2023-08-30T05:16:45;10.6;97.9
74484;SHT31;62942;52.462;10.846;2023-08-30T05:17:55;10.7;98
74484;SHT31;62942;52.462;10.846;2023-08-30T05:18:55;10.7;98
74484;SHT31;62942;52.462;10.846;2023-08-30T05:20:05;10.7;98
74484;SHT31;62942;52.462;10.846;2023-08-30T05:21:05;10.7;98
74484;SHT31;62942;52.462;10.846;2023-08-30T05:22:15;10.7;98
74484;SHT31;62942;52.462;10.846;2023-08-30T05:23:15;10.8;98
74484;SHT31;62942;52.462;10.846;2023-08-30T05:24:15;10.8;98.1
74484;SHT31;62942;52.462;10.846;2023-08-30T05:25:15;10.8;98.1
74484;SHT31;62942;52.462;10.846;2023-08-30T05:26:25;10.8;98
74484;SHT31;62942;52.462;10.846;2023-08-30T05:27:25;10.8;98
74484;SHT31;62942;52.462;10.846;2023-08-30T05:28:25;10.9;98.1
74484;SHT31;62942;52.462;10.846;2023-08-30T05:29:35;10.9;98.1
74484;SHT31;62942;52.462;10.846;2023-08-30T05:30:45;10.9;98.1
74484;SHT31;62942;52.462;10.846;2023-08-30T05:31:45;11;98.1
74484;SHT31;62942;52.462;10.846;2023-08-30T05:32:45;11;98.1
74484;SHT31;62942;52.462;10.846;2023-08-30T05:33:45;11;98.1
74484;SHT31;62942;52.462;10.846;2023-08-30T05:34:45;11;98.1
74484;SHT31;62942;52.462;10.846;2023-08-30T05:35:55;11.1;98.1
74484;SHT31;62942;52.462;10.846;2023-08-30T05:37:05;11.2;98.1
74484;SHT31;62942;52.462;10.846;2023-08-30T05:38:15;11.3;98.1
74484;SHT31;62942;52.462;10.846;2023-08-30T05:39:25;11.3;98.1
74484;SHT31;62942;52.462;10.846;2023-08-30T05:40:35;11.4;98.1
74484;SHT31;62942;52.462;10.846;2023-08-30T05:41:35;11.5;98.1
74484;SHT31;62942;52.462;10.846;2023-08-30T05:42:45;11.6;98.1
74484;SHT31;62942;52.462;10.846;2023-08-30T05:43:55;11.7;98.1
74484;SHT31;62942;52.462;10.846;2023-08-30T05:45:05;11.8;98.1
74484;SHT31;62942;52.462;10.846;2023-08-30T05:46:05;11.9;98.1
74484;SHT31;62942;52.462;10.846;2023-08-30T05:47:15;12;98
74484;SHT31;62942;52.462;10.846;2023-08-30T05:48:15;12.1;97.9
74484;SHT31;62942;52.462;10.846;2023-08-30T05:49:25;12.3;97.8
74484;SHT31;62942;52.462;10.846;2023-08-30T05:50:35;12.5;97.6
74484;SHT31;62942;52.462;10.846;2023-08-30T05:51:45;12.7;97.3
74484;SHT31;62942;52.462;10.846;2023-08-30T05:52:55;12.9;97
74484;SHT31;62942;52.462;10.846;2023-08-30T05:54:05;13.1;96.7
74484;SHT31;62942;52.462;10.846;2023-08-30T05:55:05;13.2;96.2
74484;SHT31;62942;52.462;10.846;2023-08-30T05:56:15;13.4;95.6
74484;SHT31;62942;52.462;10.846;2023-08-30T05:57:25;13.7;94.8
74484;SHT31;62942;52.462;10.846;2023-08-30T05:58:35;13.9;94
74484;SHT31;62942;52.462;10.846;2023-08-30T05:59:45;14.1;92.9
74484;SHT31;62942;52.462;10.846;2023-08-30T06:00:56;14.3;91.9
74484;SHT31;62942;52.462;10.846;2023-08-30T06:02:05;14.6;90.8
74484;SHT31;62942;52.462;10.846;2023-08-30T06:03:15;14.8;90.1
74484;SHT31;62942;52.462;10.846;2023-08-30T06:04:15;15;88.6
74484;SHT31;62942;52.462;10.846;2023-08-30T06:05:25;15.2;87.7
74484;SHT31;62942;52.462;10.846;2023-08-30T06:06:35;15.4;86.9
74484;SHT31;62942;52.462;10.846;2023-08-30T06:07:35;15.6;86.6
74484;SHT31;62942;52.462;10.846;2023-08-30T06:08:45;15.8;85.7
74484;SHT31;62942;52.462;10.846;2023-08-30T06:09:55;16;84.9
74484;SHT31;62942;52.462;10.846;2023-08-30T06:11:05;16.2;84.2
74484;SHT31;62942;52.462;10.846;2023-08-30T06:12:15;16.4;83.6
74484;SHT31;62942;52.462;10.846;2023-08-30T06:13:25;16.6;82.6
74484;SHT31;62942;52.462;10.846;2023-08-30T06:14:35;16.7;81.5
74484;SHT31;62942;52.462;10.846;2023-08-30T06:15:35;16.9;80.9
74484;SHT31;62942;52.462;10.846;2023-08-30T06:16:35;17;80.1
74484;SHT31;62942;52.462;10.846;2023-08-30T06:17:45;17.2;79.4
74484;SHT31;62942;52.462;10.846;2023-08-30T06:18:55;17.4;78.6
74484;SHT31;62942;52.462;10.846;2023-08-30T06:20:05;17.5;78
74484;SHT31;62942;52.462;10.846;2023-08-30T06:21:15;17.7;77.7
74484;SHT31;62942;52.462;10.846;2023-08-30T06:22:16;17.9;77.1
74484;SHT31;62942;52.462;10.846;2023-08-30T06:23:25;18.1;76.5
74484;SHT31;62942;52.462;10.846;2023-08-30T06:24:35;18.2;75.9
74484;SHT31;62942;52.462;10.846;2023-08-30T06:25:52;18.3;75.1
74484;SHT31;62942;52.462;10.846;2023-08-30T06:26:55;18.5;74.5
74484;SHT31;62942;52.462;10.846;2023-08-30T06:27:56;18.7;74.1
74484;SHT31;62942;52.462;10.846;2023-08-30T06:29:05;18.8;73.7
74484;SHT31;62942;52.462;10.846;2023-08-30T06:30:05;18.9;73.1
74484;SHT31;62942;52.462;10.846;2023-08-30T06:31:15;19;72.9
74484;SHT31;62942;52.462;10.846;2023-08-30T06:32:25;19.1;72.4
74484;SHT31;62942;52.462;10.846;2023-08-30T06:33:25;19.2;71.6
74484;SHT31;62942;52.462;10.846;2023-08-30T06:34:35;19.3;71.6
74484;SHT31;62942;52.462;10.846;2023-08-30T06:35:36;19.4;71.4
74484;SHT31;62942;52.462;10.846;2023-08-30T06:36:35;19.6;71
74484;SHT31;62942;52.462;10.846;2023-08-30T06:37:45;19.8;70.6
74484;SHT31;62942;52.462;10.846;2023-08-30T06:38:55;20;69.9
74484;SHT31;62942;52.462;10.846;2023-08-30T06:40:05;20.3;68.8
74484;SHT31;62942;52.462;10.846;2023-08-30T06:41:15;20.4;67.4
74484;SHT31;62942;52.462;10.846;2023-08-30T06:42:15;20.5;67.7
74484;SHT31;62942;52.462;10.846;2023-08-30T06:43:15;20.5;67.1
74484;SHT31;62942;52.462;10.846;2023-08-30T06:44:25;20.6;66.9
74484;SHT31;62942;52.462;10.846;2023-08-30T06:45:25;20.6;66.1
74484;SHT31;62942;52.462;10.846;2023-08-30T06:46:35;20.7;66.4
74484;SHT31;62942;52.462;10.846;2023-08-30T06:47:35;20.8;66.6
74484;SHT31;62942;52.462;10.846;2023-08-30T06:48:45;21;65.9
74484;SHT31;62942;52.462;10.846;2023-08-30T06:49:45;21.1;65.4
74484;SHT31;62942;52.462;10.846;2023-08-30T06:50:56;21.3;64.7
74484;SHT31;62942;52.462;10.846;2023-08-30T06:51:55;21.4;64.4
74484;SHT31;62942;52.462;10.846;2023-08-30T06:53:05;21.5;64.1
74484;SHT31;62942;52.462;10.846;2023-08-30T06:54:05;21.6;63.8
74484;SHT31;62942;52.462;10.846;2023-08-30T06:55:05;21.6;62.7
74484;SHT31;62942;52.462;10.846;2023-08-30T06:56:15;21.5;63.5
74484;SHT31;62942;52.462;10.846;2023-08-30T06:57:25;21.6;62.7
74484;SHT31;62942;52.462;10.846;2023-08-30T06:58:25;21.6;62.9
74484;SHT31;62942;52.462;10.846;2023-08-30T06:59:35;21.7;62.9
74484;SHT31;62942;52.462;10.846;2023-08-30T07:00:45;21.8;62.7
74484;SHT31;62942;52.462;10.846;2023-08-30T07:01:55;22;62.2
74484;SHT31;62942;52.462;10.846;2023-08-30T07:03:05;22.2;61.9
74484;SHT31;62942;52.462;10.846;2023-08-30T07:04:15;22.3;61.5
74484;SHT31;62942;52.462;10.846;2023-08-30T07:05:25;22.4;60.9
74484;SHT31;62942;52.462;10.846;2023-08-30T07:06:35;22.5;60.8
74484;SHT31;62942;52.462;10.846;2023-08-30T07:07:35;22.5;60.2